createdAt,value
2023-02-12T00:01:33.560Z,95.50
2023-02-12T00:04:01.820Z,93.60
2023-02-12T00:06:29.849Z,92.00
2023-02-12T00:08:58.530Z,81.00
2023-02-12T00:11:29.817Z,86.40
2023-02-12T00:13:58.872Z,89.60
2023-02-12T00:16:28.836Z,72.50
2023-02-12T00:18:58.565Z,67.60
2023-02-12T00:21:27.228Z,81.20
2023-02-12T00:23:55.723Z,66.20
2023-02-12T00:26:24.725Z,77.70
2023-02-12T00:28:53.542Z,82.30
2023-02-12T00:31:25.040Z,71.50
2023-02-12T00:33:53.527Z,78.60
2023-02-12T00:36:24.870Z,76.80
2023-02-12T00:38:54.956Z,76.20
2023-02-12T00:41:26.332Z,69.40
2023-02-12T00:43:54.527Z,70.00
2023-02-12T00:46:22.669Z,74.90
2023-02-12T00:48:51.032Z,76.90
2023-02-12T00:51:21.705Z,76.50
2023-02-12T00:53:49.638Z,84.10
2023-02-12T00:56:17.854Z,75.60
2023-02-12T00:58:45.946Z,45.80
2023-02-12T01:01:13.927Z,71.40
2023-02-12T01:03:41.972Z,73.50
2023-02-12T01:06:10.120Z,74.40
2023-02-12T01:08:38.158Z,70.70
2023-02-12T01:11:06.689Z,79.20
2023-02-12T01:13:35.492Z,67.20
2023-02-12T01:16:12.830Z,54.60
2023-02-12T01:18:40.935Z,73.10
2023-02-12T01:21:10.963Z,70.20
2023-02-12T01:23:39.346Z,64.30
2023-02-12T01:26:07.830Z,57.70
2023-02-12T01:28:35.854Z,66.70
2023-02-12T01:31:09.587Z,77.00
2023-02-12T01:33:37.669Z,77.70
2023-02-12T01:36:06.374Z,72.50
2023-02-12T01:38:34.670Z,77.00
2023-02-12T01:41:11.931Z,77.20
2023-02-12T01:43:40.980Z,78.30
2023-02-12T01:46:12.690Z,70.30
2023-02-12T01:48:44.657Z,77.10
2023-02-12T01:51:18.326Z,78.10
2023-02-12T01:53:51.032Z,79.30
2023-02-12T01:56:20.235Z,75.20
2023-02-12T01:58:51.222Z,58.60
2023-02-12T02:01:23.493Z,71.70
2023-02-12T02:03:56.315Z,76.70
2023-02-12T02:06:29.911Z,68.00
2023-02-12T02:08:58.164Z,58.40
2023-02-12T02:11:45.171Z,65.90
2023-02-12T02:14:32.353Z,67.70
2023-02-12T02:17:21.595Z,70.20
2023-02-12T02:20:28.431Z,71.60
2023-02-12T02:23:24.048Z,55.30
2023-02-12T02:26:14.550Z,64.00
2023-02-12T02:28:57.747Z,73.50
2023-02-12T02:31:43.051Z,60.20
2023-02-12T02:34:39.893Z,69.40
2023-02-12T02:37:48.091Z,66.60
2023-02-12T02:40:20.090Z,66.90
2023-02-12T02:43:00.876Z,59.10
2023-02-12T02:45:36.423Z,71.60
2023-02-12T02:48:19.380Z,68.50
2023-02-12T02:50:52.564Z,57.80
2023-02-12T02:53:28.710Z,66.20
2023-02-12T02:56:00.015Z,66.10
2023-02-12T02:58:46.705Z,71.70
2023-02-12T03:01:29.833Z,62.60
2023-02-12T03:04:02.818Z,68.20
2023-02-12T03:06:40.273Z,67.30
2023-02-12T03:09:20.435Z,58.70
2023-02-12T03:11:50.975Z,55.60
2023-02-12T03:14:29.211Z,49.30
2023-02-12T03:17:05.373Z,57.10
2023-02-12T03:20:01.005Z,49.30
2023-02-12T03:22:33.382Z,72.00
2023-02-12T03:25:12.463Z,68.50
2023-02-12T03:27:50.087Z,61.70
2023-02-12T03:30:18.658Z,59.00
2023-02-12T03:32:54.274Z,63.00
2023-02-12T03:35:32.479Z,65.20
2023-02-12T03:38:42.455Z,65.60
2023-02-12T03:41:31.565Z,63.60
2023-02-12T03:44:18.960Z,67.30
2023-02-12T03:47:05.412Z,63.00
2023-02-12T03:49:47.444Z,63.80
2023-02-12T03:52:15.455Z,74.00
2023-02-12T03:54:43.516Z,71.10
2023-02-12T03:57:16.580Z,69.60
2023-02-12T03:59:45.883Z,65.00
2023-02-12T04:02:16.538Z,67.20
2023-02-12T04:04:46.891Z,65.90
2023-02-12T04:07:16.859Z,67.80
2023-02-12T04:09:45.212Z,64.90
2023-02-12T04:12:41.345Z,69.10
2023-02-12T04:15:28.500Z,69.70
2023-02-12T04:18:23.697Z,67.60
2023-02-12T04:21:10.612Z,66.40
2023-02-12T04:24:01.732Z,69.40
2023-02-12T04:26:55.341Z,70.40
2023-02-12T04:29:42.117Z,67.90
2023-02-12T04:32:17.706Z,59.50
2023-02-12T04:34:59.082Z,66.00
2023-02-12T04:38:11.760Z,69.50
2023-02-12T04:40:41.864Z,67.20
2023-02-12T04:43:10.118Z,73.70
2023-02-12T04:45:38.477Z,74.00
2023-02-12T04:48:06.894Z,55.40
2023-02-12T04:50:43.863Z,57.90
2023-02-12T04:53:11.820Z,64.40
2023-02-12T04:55:40.236Z,67.10
2023-02-12T04:58:08.271Z,66.70
2023-02-12T05:00:36.375Z,70.60
2023-02-12T05:03:05.008Z,64.20
2023-02-12T05:05:33.029Z,65.00
2023-02-12T05:08:00.913Z,68.40
2023-02-12T05:10:29.018Z,68.90
2023-02-12T05:12:57.129Z,67.90
2023-02-12T05:15:25.105Z,66.60
2023-02-12T05:17:53.146Z,61.90
2023-02-12T05:20:21.210Z,73.00
2023-02-12T05:22:52.912Z,81.70
2023-02-12T05:25:21.027Z,63.30
2023-02-12T05:27:49.060Z,69.10
2023-02-12T05:30:17.206Z,74.60
2023-02-12T05:32:45.152Z,74.50
2023-02-12T05:35:13.063Z,80.10
2023-02-12T05:37:41.082Z,73.00
2023-02-12T05:40:09.650Z,75.30
2023-02-12T05:42:37.691Z,77.10
2023-02-12T05:45:06.352Z,73.60
2023-02-12T05:47:34.343Z,70.80
2023-02-12T05:50:02.415Z,70.80
2023-02-12T05:52:30.322Z,76.60
2023-02-12T05:54:58.272Z,79.90
2023-02-12T05:57:26.247Z,75.20
2023-02-12T05:59:54.319Z,76.90
2023-02-12T06:02:22.309Z,84.20
2023-02-12T06:04:50.441Z,73.00
2023-02-12T06:07:18.385Z,74.00
2023-02-12T06:09:46.561Z,78.70
2023-02-12T06:12:14.585Z,77.90
2023-02-12T06:14:43.309Z,81.70
2023-02-12T06:17:11.372Z,74.80
2023-02-12T06:19:39.447Z,70.00
2023-02-12T06:22:07.414Z,63.10
2023-02-12T06:24:37.253Z,60.90
2023-02-12T06:27:05.094Z,56.20
2023-02-12T06:29:33.113Z,65.70
2023-02-12T06:32:01.223Z,65.90
2023-02-12T06:34:29.320Z,64.00
2023-02-12T06:36:57.432Z,73.00
2023-02-12T06:39:25.403Z,73.30
2023-02-12T06:41:54.653Z,72.90
2023-02-12T06:44:23.224Z,67.50
2023-02-12T06:46:51.210Z,66.90
2023-02-12T06:49:19.192Z,76.30
2023-02-12T06:51:47.050Z,74.90
2023-02-12T06:54:17.776Z,72.50
2023-02-12T06:56:46.035Z,80.60
2023-02-12T06:59:16.065Z,75.10
2023-02-12T07:01:44.849Z,75.30
2023-02-12T07:04:13.824Z,82.90
2023-02-12T07:06:41.953Z,82.60
2023-02-12T07:09:09.955Z,87.50
2023-02-12T07:11:38.820Z,102.00
2023-02-12T07:14:07.864Z,85.50
2023-02-12T07:16:35.844Z,90.10
2023-02-12T07:19:04.052Z,110.40
2023-02-12T07:21:32.432Z,106.20
2023-02-12T07:24:00.380Z,100.50
2023-02-12T07:26:28.247Z,101.90
2023-02-12T07:28:58.768Z,104.00
2023-02-12T07:31:27.155Z,108.90
2023-02-12T07:33:57.976Z,115.60
2023-02-12T07:36:28.723Z,107.20
2023-02-12T07:38:57.448Z,111.10
2023-02-12T07:41:31.438Z,120.20
2023-02-12T07:44:03.965Z,115.10
2023-02-12T07:46:34.563Z,114.20
2023-02-12T07:49:05.650Z,121.10
2023-02-12T07:51:37.291Z,117.60
2023-02-12T07:54:05.591Z,119.60
2023-02-12T07:56:37.754Z,110.10
2023-02-12T07:59:08.664Z,98.60
2023-02-12T08:01:41.875Z,112.80
2023-02-12T08:04:13.542Z,123.80
2023-02-12T08:06:44.144Z,128.00
2023-02-12T08:09:15.348Z,117.50
2023-02-12T08:11:44.088Z,117.40
2023-02-12T08:14:14.876Z,116.60
2023-02-12T08:16:45.075Z,116.50
2023-02-12T08:19:20.961Z,113.80
2023-02-12T08:21:54.973Z,116.20
2023-02-12T08:24:24.245Z,108.20
2023-02-12T08:26:52.241Z,110.30
2023-02-12T08:29:22.969Z,111.50
2023-02-12T08:31:56.395Z,113.60
2023-02-12T08:34:27.514Z,110.10
2023-02-12T08:36:56.871Z,135.80
2023-02-12T08:39:27.528Z,116.80
2023-02-12T08:41:57.538Z,118.60
2023-02-12T08:44:25.596Z,125.60
2023-02-12T08:46:55.881Z,117.70
2023-02-12T08:49:27.296Z,113.70
2023-02-12T08:51:57.768Z,110.40
2023-02-12T08:54:28.288Z,110.00
2023-02-12T08:56:58.369Z,108.90
2023-02-12T08:59:26.509Z,104.90
2023-02-12T09:01:55.461Z,97.40
2023-02-12T09:04:25.869Z,109.40
2023-02-12T09:06:54.495Z,105.10
2023-02-12T09:09:22.449Z,100.50
2023-02-12T09:11:51.103Z,91.90
2023-02-12T09:14:24.252Z,94.70
2023-02-12T09:16:53.687Z,91.90
2023-02-12T09:19:22.405Z,94.80
2023-02-12T09:21:55.252Z,88.70
2023-02-12T09:24:25.834Z,88.30
2023-02-12T09:26:53.904Z,87.50
2023-02-12T09:29:21.936Z,77.60
2023-02-12T09:31:50.519Z,91.60
2023-02-12T09:34:18.715Z,75.80
2023-02-12T09:36:46.939Z,94.50
2023-02-12T09:39:15.216Z,90.30
2023-02-12T09:42:02.146Z,97.10
2023-02-12T09:44:53.346Z,80.20
2023-02-12T09:47:26.136Z,91.00
2023-02-12T09:50:33.823Z,84.70
2023-02-12T09:53:02.744Z,84.50
2023-02-12T09:55:34.138Z,86.50
2023-02-12T09:58:07.457Z,81.70
2023-02-12T10:00:35.633Z,78.20
2023-02-12T10:03:12.472Z,85.10
2023-02-12T10:05:50.653Z,75.20
2023-02-12T10:08:54.269Z,71.90
2023-02-12T10:11:40.785Z,74.80
2023-02-12T10:14:11.781Z,71.60
2023-02-12T10:17:12.811Z,73.70
2023-02-12T10:20:01.361Z,78.30
2023-02-12T10:22:56.141Z,74.30
2023-02-12T10:25:52.248Z,77.50
2023-02-12T10:28:28.550Z,67.50
2023-02-12T10:31:07.469Z,71.20
2023-02-12T10:33:39.619Z,68.00
2023-02-12T10:36:27.846Z,68.50
2023-02-12T10:39:01.392Z,62.10
2023-02-12T10:41:32.125Z,54.10
2023-02-12T10:44:00.327Z,37.60
2023-02-12T10:46:32.242Z,81.50
2023-02-12T10:49:00.835Z,67.70
2023-02-12T10:51:57.500Z,57.50
2023-02-12T10:54:40.308Z,40.30
2023-02-12T10:57:26.093Z,46.80
2023-02-12T11:02:29.694Z,67.10
2023-02-12T11:04:59.729Z,65.80
2023-02-12T11:07:28.834Z,67.60
2023-02-12T11:09:57.632Z,62.60
2023-02-12T11:12:48.519Z,68.50
2023-02-12T11:15:22.258Z,63.70
2023-02-12T11:18:05.426Z,65.00
2023-02-12T11:20:39.432Z,60.70
2023-02-12T11:23:34.105Z,59.80
2023-02-12T11:26:24.419Z,65.20
2023-02-12T11:29:00.581Z,62.20
2023-02-12T11:31:30.076Z,59.20
2023-02-12T11:34:04.605Z,59.20
2023-02-12T11:36:36.666Z,59.20
2023-02-12T11:39:07.882Z,67.90
2023-02-12T11:41:39.175Z,62.50
2023-02-12T11:44:12.398Z,60.60
2023-02-12T11:46:47.071Z,69.40
2023-02-12T11:49:32.559Z,60.90
2023-02-12T11:52:03.721Z,58.00
2023-02-12T11:54:41.485Z,66.70
2023-02-12T11:57:36.274Z,44.90
2023-02-12T12:00:19.761Z,61.10
2023-02-12T12:03:03.294Z,40.00
2023-02-12T12:05:45.645Z,63.70
2023-02-12T12:08:40.104Z,65.00
2023-02-12T12:11:18.432Z,66.10
2023-02-12T12:13:58.236Z,49.60
2023-02-12T12:16:52.568Z,67.70
2023-02-12T12:19:47.314Z,65.90
2023-02-12T12:22:21.378Z,65.50
2023-02-12T12:25:02.863Z,63.40
2023-02-12T12:28:00.014Z,62.20
2023-02-12T12:30:52.514Z,38.50
2023-02-12T12:33:44.030Z,49.10
2023-02-12T12:36:37.870Z,67.10
2023-02-12T12:39:43.744Z,66.50
2023-02-12T12:42:33.385Z,72.00
2023-02-12T12:45:38.978Z,64.10
2023-02-12T12:48:16.829Z,66.90
2023-02-12T12:51:06.421Z,66.50
2023-02-12T12:53:47.083Z,66.50
2023-02-12T12:56:42.102Z,67.60
2023-02-12T12:59:21.573Z,65.60
2023-02-12T13:02:29.648Z,57.70
2023-02-12T13:05:29.100Z,57.90
2023-02-12T13:08:10.257Z,65.00
2023-02-12T13:10:51.242Z,65.30
2023-02-12T13:13:45.028Z,59.30
2023-02-12T13:16:24.106Z,69.00
2023-02-12T13:19:01.596Z,58.90
2023-02-12T13:21:42.399Z,60.50
2023-02-12T13:24:29.550Z,62.00
2023-02-12T13:27:01.632Z,60.00
2023-02-12T13:29:39.392Z,57.00
2023-02-12T13:32:22.769Z,60.30
2023-02-12T13:34:53.832Z,39.30
2023-02-12T13:37:38.485Z,67.40
2023-02-12T13:40:11.011Z,58.50
2023-02-12T13:43:28.262Z,59.20
2023-02-12T13:46:08.049Z,65.20
2023-02-12T13:48:53.204Z,54.80
2023-02-12T13:51:32.111Z,56.80
2023-02-12T13:54:03.278Z,55.90
2023-02-12T13:57:11.697Z,52.80
2023-02-12T13:59:45.330Z,61.70
2023-02-12T14:02:28.775Z,56.50
2023-02-12T14:05:00.065Z,59.20
2023-02-12T14:07:47.243Z,71.20
2023-02-12T14:10:29.903Z,56.40
2023-02-12T14:13:25.119Z,54.20
2023-02-12T14:15:56.826Z,55.40
2023-02-12T14:18:28.349Z,65.90
2023-02-12T14:21:12.220Z,56.60
2023-02-12T14:23:46.162Z,62.30
2023-02-12T14:26:16.597Z,56.30
2023-02-12T14:29:06.940Z,61.90
2023-02-12T14:31:37.569Z,53.80
2023-02-12T14:34:06.148Z,57.30
2023-02-12T14:36:41.696Z,58.60
2023-02-12T14:41:53.443Z,56.10
2023-02-12T14:44:23.221Z,56.00
2023-02-12T14:47:05.289Z,59.00
2023-02-12T14:49:44.915Z,69.00
2023-02-12T14:52:13.083Z,61.20
2023-02-12T14:54:49.020Z,60.50
2023-02-12T14:57:37.752Z,58.10
2023-02-12T15:00:18.168Z,56.80
2023-02-12T15:03:00.661Z,61.10
2023-02-12T15:05:34.893Z,62.60
2023-02-12T15:08:25.321Z,56.60
2023-02-12T15:10:59.979Z,54.80
2023-02-12T15:13:30.284Z,63.00
2023-02-12T15:16:15.544Z,61.30
2023-02-12T15:18:54.714Z,60.10
2023-02-12T15:21:34.809Z,72.60
2023-02-12T15:24:08.223Z,65.40
2023-02-12T15:26:42.007Z,69.00
2023-02-12T15:29:33.140Z,67.40
2023-02-12T15:32:06.899Z,61.10
2023-02-12T15:34:40.329Z,58.40
2023-02-12T15:37:10.169Z,56.50
2023-02-12T15:39:44.534Z,59.60
2023-02-12T15:42:28.208Z,63.60
2023-02-12T15:45:14.891Z,73.30
2023-02-12T15:47:44.624Z,65.30
2023-02-12T15:50:16.171Z,64.70
2023-02-12T15:52:47.681Z,60.40
2023-02-12T15:55:25.988Z,73.30
2023-02-12T15:57:59.861Z,64.20
2023-02-12T16:00:47.887Z,61.20
2023-02-12T16:03:34.081Z,69.70
2023-02-12T16:06:06.809Z,72.80
2023-02-12T16:08:36.120Z,63.20
2023-02-12T16:11:14.088Z,59.30
2023-02-12T16:13:51.485Z,57.40
2023-02-12T16:16:31.048Z,32.10
2023-02-12T16:19:17.791Z,58.90
2023-02-12T16:21:49.978Z,41.10
2023-02-12T16:24:44.610Z,52.20
2023-02-12T16:27:15.718Z,54.00
2023-02-12T16:29:52.419Z,37.40
2023-02-12T16:32:42.631Z,50.40
2023-02-12T16:35:10.551Z,52.10
2023-02-12T16:37:38.569Z,55.40
2023-02-12T16:40:12.336Z,54.60
2023-02-12T16:42:40.255Z,56.00
2023-02-12T16:45:32.594Z,62.50
2023-02-12T16:48:24.675Z,63.00
2023-02-12T16:50:58.390Z,67.70
2023-02-12T16:53:26.305Z,68.60
2023-02-12T16:55:54.526Z,67.60
2023-02-12T16:58:22.634Z,68.30
2023-02-12T17:00:50.710Z,70.10
2023-02-12T17:03:18.892Z,71.50
2023-02-12T17:05:47.330Z,68.40
2023-02-12T17:08:20.977Z,70.80
2023-02-12T17:10:49.187Z,70.10
2023-02-12T17:13:18.027Z,77.60
2023-02-12T17:15:54.242Z,70.80
2023-02-12T17:18:23.157Z,59.30
2023-02-12T17:20:58.145Z,76.70
2023-02-12T17:23:26.718Z,68.80
2023-02-12T17:25:54.914Z,75.70
2023-02-12T17:28:25.297Z,73.00
2023-02-12T17:30:53.986Z,74.40
2023-02-12T17:33:22.864Z,70.40
2023-02-12T17:35:51.025Z,75.10
2023-02-12T17:38:18.984Z,69.90
2023-02-12T17:40:47.136Z,71.60
2023-02-12T17:43:15.204Z,78.00
2023-02-12T17:45:43.917Z,74.70
2023-02-12T17:48:13.820Z,77.10
2023-02-12T17:50:42.318Z,79.70
2023-02-12T17:53:11.622Z,79.70
2023-02-12T17:55:40.897Z,81.40
2023-02-12T17:58:09.083Z,80.80
2023-02-12T18:00:37.185Z,82.60
2023-02-12T18:03:05.287Z,84.10
2023-02-12T18:05:33.487Z,84.10
2023-02-12T18:08:03.690Z,81.80
2023-02-12T18:10:31.739Z,89.50
2023-02-12T18:12:59.951Z,91.20
2023-02-12T18:15:27.940Z,91.20
2023-02-12T18:17:56.069Z,89.60
2023-02-12T18:20:24.456Z,81.90
2023-02-12T18:22:52.415Z,82.60
2023-02-12T18:25:20.482Z,82.70
2023-02-12T18:27:48.502Z,76.40
2023-02-12T18:30:16.845Z,79.90
2023-02-12T18:32:44.800Z,74.60
2023-02-12T18:35:13.131Z,81.30
2023-02-12T18:37:43.330Z,81.00
2023-02-12T18:40:12.056Z,78.80
2023-02-12T18:42:40.199Z,86.90
2023-02-12T18:45:08.628Z,87.30
2023-02-12T18:47:36.763Z,84.90
2023-02-12T18:50:05.763Z,80.50
2023-02-12T18:52:33.977Z,86.00
2023-02-12T18:55:01.936Z,82.60
2023-02-12T18:57:31.267Z,89.80
2023-02-12T18:59:59.356Z,82.30
2023-02-12T19:02:27.402Z,84.40
2023-02-12T19:04:55.785Z,90.10
2023-02-12T19:07:23.674Z,80.70
2023-02-12T19:09:52.954Z,83.70
2023-02-12T19:12:21.064Z,99.00
2023-02-12T19:14:48.987Z,96.30
2023-02-12T19:17:17.430Z,91.30
2023-02-12T19:19:45.494Z,87.50
2023-02-12T19:22:13.538Z,83.80
2023-02-12T19:24:46.862Z,77.50
2023-02-12T19:27:15.798Z,78.20
2023-02-12T19:29:44.213Z,80.20
2023-02-12T19:32:12.655Z,73.50
2023-02-12T19:34:40.889Z,86.80
2023-02-12T19:37:10.998Z,81.20
2023-02-12T19:39:40.693Z,80.00
2023-02-12T19:42:10.594Z,79.30
2023-02-12T19:44:40.787Z,89.00
2023-02-12T19:47:09.142Z,90.10
2023-02-12T19:49:38.273Z,95.00
2023-02-12T19:52:06.274Z,84.40
2023-02-12T19:54:34.907Z,104.90
2023-02-12T19:57:08.702Z,97.70
2023-02-12T19:59:36.942Z,99.10
2023-02-12T20:02:05.114Z,101.00
2023-02-12T20:04:34.015Z,98.70
2023-02-12T20:07:02.354Z,99.20
2023-02-12T20:09:30.490Z,120.30
2023-02-12T20:11:59.822Z,104.10
2023-02-12T20:14:28.140Z,140.00
2023-02-12T20:16:58.618Z,113.50
2023-02-12T20:19:30.686Z,111.50
2023-02-12T20:22:01.699Z,115.50
2023-02-12T20:24:32.504Z,115.20
2023-02-12T20:27:01.968Z,109.70
2023-02-12T20:29:30.092Z,120.80
2023-02-12T20:31:58.105Z,112.60
2023-02-12T20:34:26.658Z,116.80
2023-02-12T20:36:54.752Z,105.70
2023-02-12T20:39:23.363Z,96.30
2023-02-12T20:41:51.500Z,106.30
2023-02-12T20:44:21.491Z,99.70
2023-02-12T20:46:55.632Z,93.80
2023-02-12T20:49:26.052Z,109.60
2023-02-12T20:51:54.215Z,103.40
2023-02-12T20:54:22.374Z,95.80
2023-02-12T20:56:51.102Z,101.00
2023-02-12T20:59:20.477Z,98.50
2023-02-12T21:01:48.723Z,107.60
2023-02-12T21:04:18.935Z,103.70
2023-02-12T21:06:48.603Z,99.90
2023-02-12T21:09:18.954Z,97.50
2023-02-12T21:11:48.142Z,102.50
2023-02-12T21:14:24.680Z,106.70
2023-02-12T21:16:54.962Z,110.60
2023-02-12T21:19:23.964Z,112.10
2023-02-12T21:21:52.101Z,113.10
2023-02-12T21:24:23.787Z,106.10
2023-02-12T21:26:53.489Z,94.20
2023-02-12T21:29:22.423Z,93.10
2023-02-12T21:31:51.576Z,89.50
2023-02-12T21:34:21.762Z,90.90
2023-02-12T21:36:52.376Z,100.50
2023-02-12T21:39:27.566Z,96.60
2023-02-12T21:42:00.143Z,101.80
2023-02-12T21:44:29.671Z,106.60
2023-02-12T21:46:58.749Z,118.20
2023-02-12T21:49:28.378Z,118.50
2023-02-12T21:52:04.851Z,112.40
2023-02-12T21:54:32.910Z,113.10
2023-02-12T21:57:01.018Z,117.50
2023-02-12T21:59:31.970Z,112.90
2023-02-12T22:02:01.849Z,109.40
2023-02-12T22:04:30.391Z,116.70
2023-02-12T22:07:03.236Z,115.10
2023-02-12T22:09:31.914Z,109.50
2023-02-12T22:11:59.979Z,102.30
2023-02-12T22:14:28.013Z,102.10
2023-02-12T22:16:55.884Z,84.00
2023-02-12T22:19:23.883Z,93.30
2023-02-12T22:21:51.934Z,88.20
2023-02-12T22:24:20.804Z,76.50
2023-02-12T22:26:48.917Z,84.30
2023-02-12T22:29:17.688Z,81.40
2023-02-12T22:31:46.842Z,77.30
2023-02-12T22:34:17.703Z,88.90
2023-02-12T22:36:46.359Z,87.60
2023-02-12T22:39:15.164Z,90.00
2023-02-12T22:41:43.220Z,89.20
2023-02-12T22:44:12.988Z,84.50
2023-02-12T22:46:42.483Z,89.70
2023-02-12T22:49:11.156Z,86.00
2023-02-12T22:51:40.004Z,89.00
2023-02-12T22:54:13.942Z,87.10
2023-02-12T22:56:43.003Z,93.40
2023-02-12T22:59:12.849Z,89.10
2023-02-12T23:01:41.189Z,93.70
2023-02-12T23:04:15.731Z,87.00
2023-02-12T23:06:44.688Z,92.70
2023-02-12T23:09:15.211Z,89.50
2023-02-12T23:11:43.175Z,79.10
2023-02-12T23:14:11.617Z,81.80
2023-02-12T23:16:39.610Z,79.00
2023-02-12T23:19:07.579Z,77.00
2023-02-12T23:21:35.492Z,72.60
2023-02-12T23:24:03.740Z,77.60
2023-02-12T23:26:32.413Z,73.70
2023-02-12T23:29:00.402Z,81.30
2023-02-12T23:31:28.516Z,70.30
2023-02-12T23:33:56.540Z,76.20
2023-02-12T23:36:24.498Z,78.20
2023-02-12T23:38:52.371Z,68.60
2023-02-12T23:41:20.265Z,73.10
2023-02-12T23:43:48.192Z,69.90
2023-02-12T23:46:16.353Z,73.50
2023-02-12T23:48:44.738Z,71.40
2023-02-12T23:51:12.812Z,70.20
2023-02-12T23:53:40.753Z,62.40
2023-02-12T23:56:08.801Z,64.20
2023-02-12T23:58:36.670Z,60.20
